Time;durP1;ratioP1;P1;durP2;ratioP2;P2;SDS_P1;SDS_P2;PMS_P1;PMS_P2;Temp;Humidity;BMP_temperature;BMP_pressure;BME280_temperature;BME280_humidity;BME280_pressure;Samples;Min_cycle;Max_cycle;Signal;HPM_P1;HPM_P2
2021/12/25 00:00:36;;;;;;;13.45;10.20;;;;;;;5.44;100.00;100363.31;6246740;23;20015;-91
2021/12/25 00:03:02;;;;;;;13.60;10.07;;;;;;;5.41;100.00;100352.94;6247083;23;20000;-91
2021/12/25 00:05:28;;;;;;;12.95;10.10;;;;;;;4.87;100.00;100270.91;6194930;23;20428;-91
2021/12/25 00:07:53;;;;;;;13.27;9.95;;;;;;;5.02;100.00;100295.03;6194474;23;20009;-90
2021/12/25 00:10:21;;;;;;;13.95;9.63;;;;;;;4.81;100.00;100252.88;6219871;23;20023;-90
2021/12/25 00:12:48;;;;;;;13.43;9.73;;;;;;;5.03;100.00;100289.47;6220544;23;20320;-91
2021/12/25 00:15:17;;;;;;;13.73;9.82;;;;;;;4.71;100.00;100254.03;6220163;23;20004;-91
2021/12/25 00:17:43;;;;;;;14.00;10.35;;;;;;;4.77;100.00;100265.88;6195047;23;20012;-90
2021/12/25 00:20:09;;;;;;;13.05;9.70;;;;;;;5.21;100.00;100340.13;6246837;23;20004;-91
2021/12/25 00:22:34;;;;;;;16.00;11.30;;;;;;;5.23;100.00;100334.56;6195369;23;20008;-91
2021/12/25 00:25:00;;;;;;;14.77;10.65;;;;;;;4.92;100.00;100279.25;6219597;23;20008;-91
2021/12/25 00:32:44;;;;;;;;;;;;;;;5.54;100.00;100350.34;6221325;23;20013;-91
2021/12/25 00:35:09;;;;;;;15.70;10.30;;;;;;;4.79;100.00;100241.50;6220161;23;19938;-91
2021/12/25 00:37:35;;;;;;;15.38;10.68;;;;;;;4.79;100.00;100249.56;6246412;23;20000;-90
2021/12/25 00:40:00;;;;;;;14.00;10.38;;;;;;;5.17;100.00;100319.22;6219794;23;20008;-91
2021/12/25 00:42:27;;;;;;;14.82;10.63;;;;;;;4.78;100.00;100256.78;6219568;23;20008;-91
2021/12/25 00:44:52;;;;;;;15.05;10.95;;;;;;;4.71;100.00;100242.44;6219581;23;20020;-91
2021/12/25 00:47:18;;;;;;;14.45;10.57;;;;;;;5.03;100.00;100302.91;6219959;23;20012;-91
2021/12/25 00:49:43;;;;;;;17.02;11.55;;;;;;;4.71;100.00;100255.88;6194731;23;20090;-91
2021/12/25 00:52:09;;;;;;;17.05;11.75;;;;;;;5.01;100.00;100302.28;6220075;23;20031;-91
2021/12/25 00:54:35;;;;;;;17.67;11.85;;;;;;;5.19;100.00;100347.56;6219184;23;20331;-91
2021/12/25 00:57:00;;;;;;;16.83;11.48;;;;;;;4.94;100.00;100300.56;6219349;23;20361;-91
2021/12/25 00:59:26;;;;;;;17.13;11.70;;;;;;;4.72;100.00;100254.84;6218946;23;20339;-91
2021/12/25 01:01:52;;;;;;;17.33;11.95;;;;;;;4.77;100.00;100273.09;6194938;23;20324;-91
2021/12/25 01:04:20;;;;;;;17.65;12.32;;;;;;;4.94;100.00;100306.78;6246567;23;20323;-91
2021/12/25 01:06:46;;;;;;;17.45;12.07;;;;;;;5.35;100.00;100375.22;6219415;23;20047;-91
2021/12/25 01:09:11;;;;;;;17.33;12.07;;;;;;;4.71;100.00;100262.09;6194944;23;20009;-90
2021/12/25 01:11:38;;;;;;;18.15;12.50;;;;;;;4.94;100.00;100295.19;6219727;23;20000;-91
2021/12/25 01:14:17;;;;;;;18.17;12.52;;;;;;;4.78;100.00;100270.22;6219597;23;20110;-91
2021/12/25 01:37:44;;;;;;;19.95;13.70;;;;;;;4.93;100.00;100302.41;6256452;23;20015;-90
2021/12/25 01:48:17;;;;;;;21.17;15.85;;;;;;;4.95;100.00;100311.13;6223672;23;20420;-91
2021/12/25 01:50:43;;;;;;;23.08;17.35;;;;;;;4.72;100.00;100282.59;6193947;23;20016;-91
2021/12/25 01:53:22;;;;;;;23.60;17.52;;;;;;;4.49;100.00;100247.00;6195053;23;20018;-93
2021/12/25 01:55:47;;;;;;;25.75;18.55;;;;;;;4.87;100.00;100303.19;6219674;23;20019;-91
2021/12/25 01:58:13;;;;;;;26.30;19.25;;;;;;;4.74;100.00;100280.53;6219296;23;20012;-91
2021/12/25 02:00:56;;;;;;;26.63;19.33;;;;;;;4.71;100.00;100278.22;6219325;23;20032;-92
2021/12/25 02:03:25;;;;;;;26.13;18.92;;;;;;;4.52;100.00;100265.41;6245737;23;20083;-91
2021/12/25 02:05:54;;;;;;;26.85;20.08;;;;;;;4.89;100.00;100315.41;6219151;23;20000;-91
2021/12/25 02:08:20;;;;;;;25.73;19.20;;;;;;;4.77;100.00;100292.75;6218498;23;20086;-91
2021/12/25 02:10:51;;;;;;;26.48;20.33;;;;;;;4.83;100.00;100299.22;6194715;23;20008;-91
2021/12/25 02:13:17;;;;;;;26.40;20.05;;;;;;;4.86;100.00;100309.59;6219453;23;20008;-91
2021/12/25 02:15:46;;;;;;;27.73;21.00;;;;;;;4.84;100.00;100315.16;6219147;23;20008;-91
2021/12/25 02:18:23;;;;;;;30.15;22.33;;;;;;;4.69;100.00;100279.44;6219089;23;20008;-90
2021/12/25 02:20:56;;;;;;;29.05;22.10;;;;;;;5.02;100.00;100321.94;6219004;23;20102;-90
2021/12/25 02:23:24;;;;;;;30.85;22.88;;;;;;;4.85;100.00;100297.16;6220654;23;20040;-90
2021/12/25 02:25:51;;;;;;;33.10;24.30;;;;;;;5.07;100.00;100339.16;6245115;23;20004;-90
2021/12/25 02:28:18;;;;;;;29.83;22.25;;;;;;;4.82;100.00;100290.31;6193369;23;20008;-90
2021/12/25 02:30:45;;;;;;;32.67;24.63;;;;;;;4.57;100.00;100261.09;6245032;23;20008;-90
2021/12/25 02:33:16;;;;;;;30.23;22.40;;;;;;;4.38;100.00;100240.25;6218772;23;20454;-90
2021/12/25 02:35:45;;;;;;;31.25;23.40;;;;;;;4.38;100.00;100245.63;6218910;23;20062;-90
2021/12/25 02:38:11;;;;;;;32.13;23.42;;;;;;;4.74;100.00;100312.78;6218611;23;20420;-90
2021/12/25 02:40:36;;;;;;;30.80;22.77;;;;;;;4.47;100.00;100265.97;6245485;23;20014;-89
2021/12/25 02:43:04;;;;;;;30.42;22.92;;;;;;;4.72;100.00;100306.78;6192851;23;20391;-90
2021/12/25 02:45:30;;;;;;;30.77;22.38;;;;;;;4.29;100.00;100246.75;6218405;23;20015;-90
2021/12/25 02:48:05;;;;;;;27.90;20.38;;;;;;;4.89;100.00;100341.47;6245175;23;20003;-90
2021/12/25 02:50:32;;;;;;;28.92;21.30;;;;;;;4.73;100.00;100304.91;6218513;23;20012;-90
2021/12/25 02:53:01;;;;;;;26.73;20.70;;;;;;;4.38;100.00;100270.63;6244534;23;20103;-90
2021/12/25 02:55:34;;;;;;;31.00;22.38;;;;;;;4.76;100.00;100331.41;6218488;23;20008;-91
2021/12/25 02:57:59;;;;;;;;;;;;;;;4.99;100.00;100352.75;6219093;23;20035;-90
2021/12/25 03:00:34;;;;;;;26.67;19.55;;;;;;;4.15;100.00;100230.50;6218327;23;19904;-91
2021/12/25 03:03:03;;;;;;;25.80;18.92;;;;;;;4.25;100.00;100245.47;6218802;23;20016;-91
2021/12/25 03:05:31;;;;;;;22.63;17.15;;;;;;;4.19;100.00;100250.59;6217891;23;20062;-91
2021/12/25 03:07:57;;;;;;;22.92;16.83;;;;;;;4.54;100.00;100312.53;6218461;23;20012;-91
2021/12/25 03:10:23;;;;;;;21.95;16.63;;;;;;;4.16;100.00;100261.69;6245938;23;20007;-90
2021/12/25 03:12:54;;;;;;;21.38;15.55;;;;;;;4.69;100.00;100360.88;6218090;23;20347;-91
2021/12/25 03:15:29;;;;;;;19.40;14.55;;;;;;;4.28;100.00;100304.16;6218603;23;20016;-91
2021/12/25 03:17:56;;;;;;;20.42;15.30;;;;;;;4.30;100.00;100337.88;6218171;23;20423;-91
2021/12/25 03:20:25;;;;;;;20.35;15.30;;;;;;;4.13;100.00;100323.81;6218310;23;20070;-91
2021/12/25 03:22:53;;;;;;;20.50;14.32;;;;;;;3.77;100.00;100280.78;6218715;23;20367;-91
2021/12/25 03:25:19;;;;;;;22.65;15.60;;;;;;;4.20;100.00;100348.06;6245093;23;20008;-91
2021/12/25 03:27:51;;;;;;;22.45;15.90;;;;;;;3.61;100.00;100273.75;6245365;23;20336;-91
2021/12/25 03:30:17;;;;;;;23.30;16.52;;;;;;;4.07;100.00;100356.75;6218480;23;20036;-90
2021/12/25 03:32:47;;;;;;;23.02;15.82;;;;;;;4.03;100.00;100367.06;6218387;23;20004;-91
2021/12/25 03:35:13;;;;;;;21.90;15.65;;;;;;;3.66;100.00;100319.63;6218224;23;20027;-91
2021/12/25 03:37:42;;;;;;;24.27;15.90;;;;;;;3.46;100.00;100304.06;6218411;23;20450;-90
2021/12/25 03:40:08;;;;;;;24.60;16.58;;;;;;;3.68;100.00;100364.03;6218659;23;20031;-91
2021/12/25 03:42:36;;;;;;;25.40;16.80;;;;;;;3.32;100.00;100303.03;6219649;23;20008;-90
2021/12/25 03:45:03;;;;;;;25.42;17.25;;;;;;;3.26;100.00;100292.16;6191582;23;20466;-90
2021/12/25 03:47:36;;;;;;;23.50;16.50;;;;;;;3.80;100.00;100387.75;6218169;23;20103;-90
2021/12/25 03:58:23;;;;;;;21.80;14.70;;;;;;;3.59;100.00;100397.34;6222253;23;20047;-90
2021/12/25 04:00:49;;;;;;;;;;;;;;;3.71;100.00;100391.53;6218453;23;20010;-91
2021/12/25 04:03:43;;;;;;;22.95;15.27;;;;;;;3.46;100.00;100376.47;6218501;23;19907;-91
2021/12/25 04:06:08;;;;;;;22.60;15.18;;;;;;;2.68;100.00;100251.59;6245354;23;20012;-91
2021/12/25 04:08:40;;;;;;;22.77;15.65;;;;;;;3.42;100.00;100380.53;6219987;23;20006;-91
2021/12/25 04:11:12;;;;;;;;;;;;;;;3.62;100.00;100396.97;6196602;23;20008;-91
2021/12/25 04:13:37;;;;;;;21.63;15.18;;;;;;;3.43;100.00;100410.88;6219526;23;19907;-91
2021/12/25 04:16:05;;;;;;;22.98;16.33;;;;;;;2.80;100.00;100309.09;6219693;23;20007;-91
2021/12/25 04:18:30;;;;;;;23.17;15.90;;;;;;;2.83;100.00;100319.47;6219849;23;20061;-90
2021/12/25 04:20:56;;;;;;;20.90;15.48;;;;;;;2.53;100.00;100291.72;6246707;23;20390;-90
2021/12/25 04:23:26;;;;;;;21.45;15.93;;;;;;;2.36;100.00;100281.09;6246688;23;20011;-90
2021/12/25 04:25:53;;;;;;;22.70;16.30;;;;;;;2.47;100.00;100295.91;6219688;23;20505;-90
2021/12/25 04:29:16;;;;;;;20.75;14.90;;;;;;;2.67;100.00;100344.50;6219360;23;20008;-90
2021/12/25 04:48:01;;;;;;;24.05;17.95;;;;;;;2.39;100.00;100403.91;6202375;23;20105;-90
2021/12/25 05:03:54;;;;;;;24.13;18.15;;;;;;;2.38;100.00;100469.16;6223853;23;20042;-91
2021/12/25 05:06:23;;;;;;;24.40;18.33;;;;;;;2.09;100.00;100424.22;6197258;23;20470;-91
2021/12/25 05:08:53;;;;;;;23.75;18.08;;;;;;;2.05;100.00;100434.44;6247972;23;20015;-91
2021/12/25 05:11:18;;;;;;;24.30;18.45;;;;;;;1.94;100.00;100429.44;6221050;23;20012;-90
2021/12/25 05:13:46;;;;;;;24.70;19.20;;;;;;;2.01;100.00;100445.63;6226693;23;20453;-91
2021/12/25 05:16:15;;;;;;;24.92;18.95;;;;;;;1.64;100.00;100406.88;6220198;23;20034;-91
2021/12/25 05:18:41;;;;;;;26.60;18.88;;;;;;;1.47;100.00;100379.31;6195535;22;20019;-91
2021/12/25 05:21:07;;;;;;;24.60;18.67;;;;;;;1.81;100.00;100447.84;6246101;23;20032;-91
2021/12/25 05:23:34;;;;;;;23.95;18.52;;;;;;;1.21;100.00;100373.13;6246133;23;20083;-91
2021/12/25 05:25:59;;;;;;;25.33;18.75;;;;;;;0.88;100.00;100333.00;6219329;23;20023;-90
2021/12/25 05:28:26;;;;;;;24.63;18.58;;;;;;;0.91;100.00;100336.34;6245785;23;20004;-90
2021/12/25 05:30:57;;;;;;;24.63;18.73;;;;;;;1.79;100.00;100493.47;6218977;23;20046;-90
2021/12/25 05:33:23;;;;;;;25.80;19.40;;;;;;;0.95;100.00;100365.25;6245648;23;20011;-90
2021/12/25 05:35:49;;;;;;;27.23;20.42;;;;;;;1.42;100.00;100453.81;6219127;23;20012;-90
2021/12/25 05:38:15;;;;;;;26.23;19.25;;;;;;;1.05;100.00;100397.16;6218100;23;20444;-90
2021/12/25 05:40:49;;;;;;;26.17;19.17;;;;;;;1.32;100.00;100444.13;6246070;23;20008;-90
2021/12/25 05:43:17;;;;;;;26.50;19.27;;;;;;;0.75;100.00;100374.53;6245456;23;20455;-90
2021/12/25 05:45:43;;;;;;;24.38;18.27;;;;;;;0.80;100.00;100399.78;6245578;23;20001;-89
2021/12/25 05:48:13;;;;;;;25.08;18.77;;;;;;;1.18;100.00;100463.47;6219303;23;20065;-92
2021/12/25 05:50:38;;;;;;;26.35;18.73;;;;;;;1.09;100.00;100451.91;6219262;23;20010;-90
2021/12/25 05:53:05;;;;;;;27.05;19.48;;;;;;;0.58;100.00;100379.00;6219321;23;20004;-91
2021/12/25 05:55:31;;;;;;;25.75;18.65;;;;;;;1.21;100.00;100474.69;6245375;23;20010;-91
2021/12/25 05:57:57;;;;;;;27.40;20.13;;;;;;;0.86;100.00;100436.50;6194108;23;20435;-91
2021/12/25 06:00:24;;;;;;;25.58;18.95;;;;;;;0.74;100.00;100436.94;6244256;23;20537;-91
2021/12/25 06:02:50;;;;;;;28.17;19.98;;;;;;;0.75;100.00;100441.31;6219028;23;20011;-91
2021/12/25 06:05:16;;;;;;;27.23;19.90;;;;;;;1.11;100.00;100505.19;6193675;23;20004;-91
2021/12/25 06:07:44;;;;;;;28.48;20.77;;;;;;;0.83;100.00;100454.72;6193593;23;20020;-91
2021/12/25 06:10:11;;;;;;;25.60;18.67;;;;;;;0.39;100.00;100399.63;6219138;23;20039;-91
2021/12/25 06:12:38;;;;;;;28.08;19.88;;;;;;;0.94;100.00;100490.97;6218672;23;20090;-91
2021/12/25 06:15:10;;;;;;;27.30;19.38;;;;;;;0.43;100.00;100418.81;6219499;23;20000;-91
2021/12/25 06:17:35;;;;;;;26.83;19.08;;;;;;;1.13;100.00;100524.59;6218957;23;20058;-91
2021/12/25 06:20:01;;;;;;;26.58;19.42;;;;;;;0.64;100.00;100447.78;6219137;23;20012;-91
2021/12/25 06:22:27;;;;;;;27.50;19.23;;;;;;;0.44;100.00;100432.00;6193987;23;20004;-90
2021/12/25 06:24:53;;;;;;;28.10;19.58;;;;;;;0.87;100.00;100510.31;6218716;23;20004;-91
2021/12/25 06:27:19;;;;;;;26.70;18.77;;;;;;;0.38;100.00;100435.28;6218785;23;20091;-88
2021/12/25 06:29:48;;;;;;;25.65;18.45;;;;;;;0.93;100.00;100535.56;6245504;23;20012;-92
2021/12/25 06:32:13;;;;;;;25.52;18.42;;;;;;;0.32;100.00;100447.44;6218396;23;20036;-84
2021/12/25 06:34:40;;;;;;;26.25;18.15;;;;;;;0.88;100.00;100545.88;6244764;23;19996;-84
2021/12/25 06:37:05;;;;;;;25.90;18.10;;;;;;;0.57;100.00;100492.13;6218217;23;20014;-84
2021/12/25 06:39:31;;;;;;;24.58;17.33;;;;;;;0.26;100.00;100452.59;6218126;23;20095;-84
2021/12/25 06:41:58;;;;;;;26.42;18.08;;;;;;;0.88;100.00;100545.88;6218400;23;20449;-84
2021/12/25 06:44:25;;;;;;;24.45;17.67;;;;;;;0.52;100.00;100501.44;6244354;23;20439;-83
2021/12/25 06:46:57;;;;;;;24.58;18.30;;;;;;;0.77;100.00;100549.66;6217552;23;20008;-82
2021/12/25 06:49:24;;;;;;;25.00;18.10;;;;;;;0.24;100.00;100457.25;6245237;23;20007;-83
2021/12/25 06:51:52;;;;;;;23.23;16.73;;;;;;;0.71;100.00;100534.28;6244680;23;20019;-82
2021/12/25 06:54:19;;;;;;;25.27;17.35;;;;;;;0.48;100.00;100497.41;6245158;23;20014;-83
2021/12/25 06:56:45;;;;;;;22.42;16.27;;;;;;;0.30;100.00;100469.97;6217898;23;20012;-83
2021/12/25 06:59:11;;;;;;;25.05;16.58;;;;;;;0.85;100.00;100551.53;6244916;23;20006;-83
2021/12/25 07:01:37;;;;;;;22.73;16.30;;;;;;;0.54;100.00;100516.47;6218261;23;20090;-92
2021/12/25 07:04:07;;;;;;;23.30;16.35;;;;;;;0.28;100.00;100472.78;6245400;23;20008;-95
2021/12/25 07:07:21;;;;;;;22.70;16.40;;;;;;;0.84;100.00;100563.19;6246700;23;20078;-96
2021/12/25 07:09:47;;;;;;;24.00;16.67;;;;;;;0.83;100.00;100570.38;6219356;23;20422;-92
2021/12/25 07:12:13;;;;;;;22.35;16.70;;;;;;;0.05;100.00;100447.63;6170211;23;20026;-93
2021/12/25 07:14:38;;;;;;;22.75;16.50;;;;;;;0.48;100.00;100518.78;6219695;23;20352;-93
2021/12/25 07:17:04;;;;;;;23.85;16.88;;;;;;;0.53;100.00;100523.63;6220146;23;20062;-93
2021/12/25 07:19:29;;;;;;;24.15;17.42;;;;;;;-0.03;100.00;100427.06;6219396;23;20091;-94
2021/12/25 07:21:55;;;;;;;23.73;16.48;;;;;;;-0.12;100.00;100442.16;6245031;23;20008;-93
2021/12/25 07:24:20;;;;;;;25.38;17.38;;;;;;;0.06;100.00;100475.97;6219571;23;20506;-94
2021/12/25 07:26:49;;;;;;;25.83;17.50;;;;;;;0.39;100.00;100549.09;6220234;23;20008;-93
2021/12/25 07:29:14;;;;;;;26.88;16.98;;;;;;;0.03;100.00;100494.94;6194573;23;20005;-93
2021/12/25 07:31:40;;;;;;;22.52;15.68;;;;;;;-0.21;100.00;100475.94;6219562;23;20062;-93
2021/12/25 07:34:06;;;;;;;23.75;16.38;;;;;;;0.14;100.00;100540.06;6246388;23;20024;-93
2021/12/25 07:36:31;;;;;;;22.65;15.90;;;;;;;0.28;100.00;100579.53;6219795;23;20308;-93
2021/12/25 07:39:00;;;;;;;26.33;16.33;;;;;;;-0.20;100.00;100496.28;6195615;23;20086;-93
2021/12/25 07:41:25;;;;;;;22.83;15.63;;;;;;;-0.14;100.00;100508.16;6221419;23;20014;-93
2021/12/25 07:43:54;;;;;;;22.95;14.95;;;;;;;-0.31;100.00;100477.88;6221312;23;20102;-93
2021/12/25 07:46:21;;;;;;;21.48;14.80;;;;;;;0.38;100.00;100600.78;6221715;23;20004;-93
2021/12/25 07:48:47;;;;;;;21.85;14.38;;;;;;;-0.25;100.00;100506.56;6197431;23;20004;-94
2021/12/25 07:51:13;;;;;;;20.95;14.25;;;;;;;-0.38;100.00;100484.78;6222794;23;20058;-93
2021/12/25 07:53:43;;;;;;;19.13;13.65;;;;;;;0.07;100.00;100560.34;6247193;23;20335;-93
2021/12/25 07:56:09;;;;;;;20.67;13.50;;;;;;;-0.58;100.00;100468.09;6234536;23;19999;-93
2021/12/25 07:58:35;;;;;;;21.48;14.00;;;;;;;-0.41;100.00;100493.94;6232676;23;20043;-93
2021/12/25 08:01:02;;;;;;;22.38;14.35;;;;;;;-0.40;100.00;100500.94;6221975;23;20007;-93
2021/12/25 08:03:35;;;;;;;23.63;14.45;;;;;;;-0.36;100.00;100501.47;6222193;23;20008;-93
2021/12/25 08:06:10;;;;;;;19.70;13.93;;;;;;;-0.48;100.00;100490.19;6197162;23;20012;-93
2021/12/25 08:08:37;;;;;;;19.58;13.50;;;;;;;-0.41;100.00;100517.09;6221260;23;20091;-93
2021/12/25 08:11:14;;;;;;;19.60;12.85;;;;;;;-0.42;100.00;100513.56;6221705;23;20008;-93
2021/12/25 08:13:40;;;;;;;19.65;12.27;;;;;;;0.27;100.00;100633.91;6221093;23;20008;-93
2021/12/25 08:16:08;;;;;;;19.17;12.38;;;;;;;-0.47;100.00;100510.53;6221126;23;20336;-93
2021/12/25 08:18:34;;;;;;;17.45;11.70;;;;;;;0.26;100.00;100634.06;6221234;23;20000;-92
2021/12/25 08:21:06;;;;;;;16.75;12.18;;;;;;;-0.43;100.00;100527.91;6221737;23;20018;-94
2021/12/25 08:23:35;;;;;;;19.20;11.30;;;;;;;0.24;100.00;100636.88;6221231;23;20005;-92
2021/12/25 08:26:01;;;;;;;17.58;11.25;;;;;;;-0.12;100.00;100591.50;6196167;23;20427;-93
2021/12/25 08:28:27;;;;;;;13.43;10.10;;;;;;;-0.61;100.00;100519.88;6220768;23;20111;-93
2021/12/25 08:30:54;;;;;;;16.00;10.88;;;;;;;-0.28;100.00;100581.53;6220802;23;20032;-94
2021/12/25 08:33:22;;;;;;;17.63;10.88;;;;;;;-0.56;100.00;100541.59;6220383;23;20012;-91
2021/12/25 08:35:48;;;;;;;15.85;11.40;;;;;;;0.05;100.00;100639.69;6220396;23;20026;-91
2021/12/25 08:38:57;;;;;;;16.00;10.73;;;;;;;0.11;100.00;100661.25;6169987;23;20458;-91
2021/12/25 08:41:27;;;;;;;17.63;11.10;;;;;;;-0.62;100.00;100539.53;6219647;23;20079;-90
2021/12/25 08:43:57;;;;;;;15.77;11.35;;;;;;;-0.62;100.00;100541.34;6244872;23;20012;-90
2021/12/25 08:46:42;;;;;;;16.00;11.40;;;;;;;-0.48;100.00;100580.00;6246264;23;20004;-90
2021/12/25 08:49:14;;;;;;;16.75;11.55;;;;;;;-0.16;100.00;100631.97;6197151;23;20020;-90
2021/12/25 08:51:40;;;;;;;17.55;11.20;;;;;;;-0.21;100.00;100638.63;6219743;23;20010;-91
2021/12/25 08:54:06;;;;;;;17.02;10.98;;;;;;;-0.46;100.00;100596.66;6246358;23;20014;-90
2021/12/25 08:56:34;;;;;;;17.98;11.15;;;;;;;-0.75;100.00;100563.88;6219433;23;20031;-89
2021/12/25 08:59:00;;;;;;;17.92;11.00;;;;;;;-0.55;100.00;100590.41;6244852;23;20012;-88
2021/12/25 09:01:29;;;;;;;17.67;11.13;;;;;;;-0.36;100.00;100629.44;6194388;23;20046;-88
2021/12/25 09:03:55;;;;;;;15.13;11.02;;;;;;;-0.54;100.00;100594.75;6246113;23;20374;-90
2021/12/25 09:06:21;;;;;;;15.10;10.82;;;;;;;-0.73;100.00;100561.06;6218900;23;20004;-90
2021/12/25 09:08:47;;;;;;;14.55;10.90;;;;;;;-0.67;100.00;100568.44;6219726;23;20015;-90
2021/12/25 09:11:17;;;;;;;17.48;10.90;;;;;;;-0.37;100.00;100611.75;6219943;23;20515;-90
2021/12/25 09:13:46;;;;;;;15.02;10.25;;;;;;;-0.67;100.00;100575.59;6195096;23;20090;-91
2021/12/25 09:16:13;;;;;;;13.55;10.15;;;;;;;-0.75;100.00;100560.38;6219894;23;20434;-90
2021/12/25 09:18:42;;;;;;;13.65;10.30;;;;;;;-0.69;100.00;100567.75;6219432;23;20519;-90
2021/12/25 09:21:08;;;;;;;15.20;10.15;;;;;;;-0.70;99.92;100582.06;6219282;23;20087;-91
2021/12/25 09:23:33;;;;;;;14.63;10.30;;;;;;;-0.66;99.81;100582.63;6219376;23;20431;-90
2021/12/25 09:25:59;;;;;;;14.35;10.30;;;;;;;-0.28;100.00;100644.66;6219256;23;20432;-89
2021/12/25 09:28:25;;;;;;;14.50;10.38;;;;;;;0.02;100.00;100688.03;6194805;23;20350;-91
2021/12/25 09:30:53;;;;;;;15.27;10.23;;;;;;;-0.34;99.79;100627.44;6220213;23;20043;-92
2021/12/25 09:33:19;;;;;;;14.23;10.60;;;;;;;-0.73;100.00;100564.53;6220132;23;20004;-92
2021/12/25 09:36:06;;;;;;;13.90;10.48;;;;;;;-0.54;100.00;100574.25;6219883;23;20315;-88
2021/12/25 09:38:33;;;;;;;16.27;9.98;;;;;;;-0.12;99.10;100638.69;6218834;23;20015;-90
2021/12/25 09:40:59;;;;;;;13.30;9.98;;;;;;;-0.52;99.29;100570.63;6218742;23;20367;-90
2021/12/25 09:43:28;;;;;;;12.57;9.30;;;;;;;-0.42;98.58;100574.88;6245720;23;20023;-91
2021/12/25 09:45:54;;;;;;;16.17;9.73;;;;;;;-0.01;98.52;100643.81;6219637;23;20146;-91
2021/12/25 09:48:21;;;;;;;12.93;9.65;;;;;;;-0.49;96.95;100595.13;6219207;23;20406;-90
2021/12/25 09:50:51;;;;;;;14.32;10.20;;;;;;;-0.18;98.71;100629.44;6219192;23;20036;-90
2021/12/25 09:53:19;;;;;;;13.27;9.70;;;;;;;-0.47;97.78;100602.97;6219519;23;20324;-90
2021/12/25 09:55:45;;;;;;;15.90;9.70;;;;;;;-0.08;95.89;100669.41;6219650;23;20386;-91
2021/12/25 09:58:13;;;;;;;12.32;9.27;;;;;;;-0.45;96.26;100609.84;6219852;23;20435;-91
2021/12/25 10:00:47;;;;;;;12.73;9.57;;;;;;;0.03;97.67;100684.34;6219010;23;20099;-91
2021/12/25 10:03:13;;;;;;;14.95;10.32;;;;;;;-0.34;97.74;100614.13;6220152;23;20000;-91
2021/12/25 10:05:44;;;;;;;14.30;10.10;;;;;;;0.36;97.37;100725.56;6218834;23;20024;-91
2021/12/25 10:08:24;;;;;;;12.77;9.63;;;;;;;-0.23;96.71;100634.41;6218345;23;20513;-89
2021/12/25 10:10:56;;;;;;;16.60;9.00;;;;;;;-0.25;94.85;100631.03;6245169;23;20043;-88
2021/12/25 10:13:29;;;;;;;14.63;9.95;;;;;;;-0.25;95.91;100628.38;6218516;23;20347;-89
2021/12/25 10:16:17;;;;;;;14.70;9.80;;;;;;;0.23;96.18;100695.75;6218424;23;20000;-89
2021/12/25 10:18:43;;;;;;;13.48;9.18;;;;;;;0.12;96.06;100670.94;6218271;23;20004;-89
2021/12/25 10:21:29;;;;;;;13.75;9.80;;;;;;;0.48;96.05;100739.53;6218277;23;20046;-89
2021/12/25 10:24:12;;;;;;;12.25;9.75;;;;;;;-0.16;95.94;100630.16;6245695;23;20004;-89
2021/12/25 10:26:40;;;;;;;13.02;9.05;;;;;;;-0.17;94.31;100632.97;6218321;23;20073;-89
2021/12/25 10:29:21;;;;;;;16.40;11.07;;;;;;;0.30;95.21;100694.16;6245288;23;20434;-89
2021/12/25 10:33:14;;;;;;;11.80;9.32;;;;;;;0.50;94.66;100733.03;6218200;23;20019;-89
2021/12/25 10:35:27;;;;;;;10.90;8.95;;;;;;;0.16;94.55;100675.00;6233103;23;20019;-89
2021/12/25 10:37:54;;;;;;;12.95;8.93;;;;;;;0.56;94.58;100730.75;6243303;23;20019;-89
2021/12/25 10:40:26;;;;;;;13.00;8.77;;;;;;;0.23;94.07;100664.53;6244899;23;20015;-89
2021/12/25 10:43:00;;;;;;;10.88;8.27;;;;;;;0.57;93.51;100743.09;6218298;23;20424;-89
2021/12/25 10:45:56;;;;;;;11.48;8.00;;;;;;;0.13;92.64;100663.78;6218174;23;20016;-90
2021/12/25 10:48:14;;;;;;;12.65;8.95;;;;;;;-0.13;93.26;100631.66;6239418;23;20431;-89
2021/12/25 10:50:53;;;;;;;11.73;8.55;;;;;;;0.52;93.25;100739.06;6244486;23;20036;-89
2021/12/25 10:53:41;;;;;;;10.18;8.10;;;;;;;0.55;93.42;100732.59;6244897;23;20008;-89
2021/12/25 10:56:13;;;;;;;11.82;7.88;;;;;;;0.28;92.34;100688.09;6194012;23;20000;-89
2021/12/25 10:58:42;;;;;;;10.50;7.25;;;;;;;0.42;92.01;100727.63;6245358;23;20004;-89
2021/12/25 11:01:15;;;;;;;10.32;7.88;;;;;;;0.23;92.58;100685.06;6218366;23;20050;-89
2021/12/25 11:03:44;;;;;;;10.95;7.68;;;;;;;0.24;91.81;100679.56;6250438;23;20083;-89
2021/12/25 11:06:18;;;;;;;9.52;7.20;;;;;;;0.34;92.16;100690.19;6218241;23;20355;-89
2021/12/25 11:08:48;;;;;;;8.77;6.70;;;;;;;-0.14;90.53;100622.84;6244537;23;20428;-91
2021/12/25 11:11:20;;;;;;;10.00;7.00;;;;;;;0.18;90.89;100677.53;6217856;23;20012;-90
2021/12/25 11:13:55;;;;;;;11.63;7.65;;;;;;;0.19;91.67;100691.69;6192443;23;20019;-89
2021/12/25 11:16:27;;;;;;;9.20;7.07;;;;;;;0.49;92.28;100738.53;6244808;23;20015;-89
2021/12/25 11:19:12;;;;;;;11.63;7.32;;;;;;;0.54;92.07;100738.91;6218055;23;20011;-89
2021/12/25 11:21:43;;;;;;;10.93;6.78;;;;;;;0.59;91.69;100739.31;6218211;23;20008;-89
2021/12/25 11:24:16;;;;;;;9.25;6.72;;;;;;;0.61;90.84;100739.16;6217613;23;20004;-89
2021/12/25 11:26:45;;;;;;;8.73;6.25;;;;;;;0.01;90.60;100651.66;6217564;23;20014;-89
2021/12/25 11:29:14;;;;;;;8.85;5.90;;;;;;;0.25;91.15;100691.94;6244575;23;20031;-89
2021/12/25 11:31:50;;;;;;;8.65;5.82;;;;;;;0.10;90.27;100664.91;6217696;23;20012;-89
2021/12/25 11:34:18;;;;;;;7.80;5.85;;;;;;;-0.15;90.35;100612.31;6244583;23;20054;-89
2021/12/25 11:36:50;;;;;;;8.68;5.28;;;;;;;0.00;90.13;100642.81;6217780;23;20057;-89
2021/12/25 11:39:16;;;;;;;;;;;;;;;0.51;92.57;100709.84;6243665;23;20026;-88
2021/12/25 11:41:43;;;;;;;7.00;4.80;;;;;;;-0.17;89.53;100616.97;6217575;23;19910;-89
2021/12/25 11:44:36;;;;;;;5.47;4.80;;;;;;;0.63;90.66;100707.78;6243649;23;20083;-89
2021/12/25 11:47:03;;;;;;;7.07;4.60;;;;;;;0.08;88.82;100597.53;6244781;23;20004;-89
2021/12/25 11:49:28;;;;;;;7.55;5.00;;;;;;;0.20;88.77;100606.16;6217974;23;20000;-89
2021/12/25 11:51:54;;;;;;;6.75;4.43;;;;;;;0.22;88.10;100625.50;6217994;23;20473;-89
2021/12/25 11:54:56;;;;;;;5.68;4.38;;;;;;;0.47;88.80;100663.09;6217792;23;19996;-89
2021/12/25 11:57:46;;;;;;;5.97;4.25;;;;;;;0.25;88.02;100621.69;6244153;23;20131;-89
2021/12/25 12:00:12;;;;;;;6.95;4.90;;;;;;;0.67;88.34;100661.09;6242554;23;20019;-89
2021/12/25 12:02:42;;;;;;;4.65;4.00;;;;;;;0.58;87.05;100621.97;6217521;23;20004;-89
2021/12/25 12:05:20;;;;;;;7.18;4.00;;;;;;;1.48;87.65;100716.06;6244631;23;20489;-89
2021/12/25 12:07:56;;;;;;;8.23;4.00;;;;;;;1.50;86.46;100681.13;6244618;23;20312;-89
2021/12/25 12:10:44;;;;;;;5.18;4.10;;;;;;;1.27;86.18;100619.34;6217918;23;20008;-89
2021/12/25 12:13:32;;;;;;;5.30;3.65;;;;;;;1.60;85.39;100663.13;6217402;23;20382;-89
2021/12/25 12:16:04;;;;;;;5.80;3.53;;;;;;;1.77;83.24;100671.19;6217699;23;20086;-89
2021/12/25 12:18:35;;;;;;;4.22;3.60;;;;;;;1.98;83.04;100687.66;6217017;23;20091;-89
2021/12/25 12:21:32;;;;;;;4.57;3.55;;;;;;;1.75;82.11;100617.88;6243051;23;20011;-89
2021/12/25 12:24:43;;;;;;;5.43;3.33;;;;;;;2.33;83.26;100675.00;6217802;23;20008;-88
2021/12/25 12:27:30;;;;;;;5.03;3.42;;;;;;;2.72;81.93;100694.97;6247734;23;20000;-95
2021/12/25 12:30:51;;;;;;;5.03;2.90;;;;;;;2.25;81.59;100586.66;6220411;23;20145;-94
2021/12/25 12:38:24;;;;;;;;;;;;;;;;;;;;;
2021/12/25 12:41:49;;;;;;;;;;;;;;;;;;;;;
2021/12/25 12:47:01;;;;;;;4.32;2.60;;;;;;;2.72;76.42;100567.19;6276436;22;20024;-90
2021/12/25 12:49:39;;;;;;;3.47;2.92;;;;;;;3.27;77.84;100680.78;6249969;22;20066;-90
2021/12/25 12:52:23;;;;;;;3.20;2.90;;;;;;;2.84;78.86;100628.47;6276806;22;20415;-89